Portada
METAR-TAF:

METAR-TAF

Aeroports :

Guwahati, Índia

latitud: 26-06-22N, longitud: 091-35-09E, altitud: 49 m

Observació

L'informe es va fer fa 10 minuts, a les 17:00 UTC
Vent 2 kt del Nord
Temperatura 29°C
Humitat 89%
Pressió 995 hPa
Visibilitat: 3000 m
Núvols disperses a una alçada de 1800 ft
Cel ennuvolat a una alçada de 10000 ft
boirina,

METAR: VEGT 251700Z 36002KT 3000 BR SCT018 BKN100 29/27 Q0995 NOSIG

Hora: 22:40 (17:10 UTC)

Pronòstic

L'informe es va fer fa 3 hores i 10 minuts, a les 14:00 UTC
Pronòstic vàlid del 25 a les 15 UTC al 25 a les 24 UTC
Vent 3 kt del Sud-Est
Visibilitat: 3000 m
Núvols disperses a una alçada de 1800 ft
Escasses núvols a una alçada de 2500 ft, Cumulonimbus.
Cel ennuvolat a una alçada de 9000 ft
pluja, boirina,

TAF: VEGT 251400Z 2515/2524 14003KT 3000 -RA BR SCT018 FEW025CB BKN090

Observacions i pronòstics meteorològics de més de 4000 aeroports (METAR i TAF).

Les estacions disponibles són els punts grocs i vermells al mapa.

Posi el ratolí al punt desitjat per veure el nom de l'estació.

Feu clic per veure les observacions i els pronòstics meteorològics.

Per canviar el mapa: feu clic els botons verds amb una creu de color negre per apropar; al botó verd amb un guió per allunyar la imatge; o en les fletxes verdes per a mapes adjacents.


METAR-TAF: